sensor_id;sensor_type;location;lat;lon;timestamp;temperature;humidity
60723;DHT22;46574;52.818;6.516;2023-03-01T00:01:20;-0.30;99.90
60723;DHT22;46574;52.818;6.516;2023-03-01T00:03:46;-0.30;99.90
60723;DHT22;46574;52.818;6.516;2023-03-01T00:06:12;-0.30;99.90
60723;DHT22;46574;52.818;6.516;2023-03-01T00:08:38;-0.40;99.90
60723;DHT22;46574;52.818;6.516;2023-03-01T00:13:39;-0.40;99.90
60723;DHT22;46574;52.818;6.516;2023-03-01T00:16:08;-0.40;99.90
60723;DHT22;46574;52.818;6.516;2023-03-01T00:18:34;-0.40;99.90
60723;DHT22;46574;52.818;6.516;2023-03-01T00:21:00;-0.40;99.90
60723;DHT22;46574;52.818;6.516;2023-03-01T00:23:25;-0.50;99.90
60723;DHT22;46574;52.818;6.516;2023-03-01T00:25:51;-0.50;99.90
60723;DHT22;46574;52.818;6.516;2023-03-01T00:28:17;-0.60;99.90
60723;DHT22;46574;52.818;6.516;2023-03-01T00:30:42;-0.60;99.90
60723;DHT22;46574;52.818;6.516;2023-03-01T00:33:08;-0.60;99.90
60723;DHT22;46574;52.818;6.516;2023-03-01T00:35:34;-0.60;99.90
60723;DHT22;46574;52.818;6.516;2023-03-01T00:38:01;-0.60;99.90
60723;DHT22;46574;52.818;6.516;2023-03-01T00:40:27;-0.60;99.90
60723;DHT22;46574;52.818;6.516;2023-03-01T00:42:54;-0.60;99.90
60723;DHT22;46574;52.818;6.516;2023-03-01T00:45:19;-0.60;99.90
60723;DHT22;46574;52.818;6.516;2023-03-01T00:47:45;-0.60;99.90
60723;DHT22;46574;52.818;6.516;2023-03-01T00:50:11;-0.70;99.90
60723;DHT22;46574;52.818;6.516;2023-03-01T00:52:37;-0.70;99.90
60723;DHT22;46574;52.818;6.516;2023-03-01T00:55:04;-0.70;99.90
60723;DHT22;46574;52.818;6.516;2023-03-01T00:57:30;-0.70;99.90
60723;DHT22;46574;52.818;6.516;2023-03-01T00:59:56;-0.70;99.90
60723;DHT22;46574;52.818;6.516;2023-03-01T01:02:22;-0.70;99.90
60723;DHT22;46574;52.818;6.516;2023-03-01T01:04:48;-0.70;99.90
60723;DHT22;46574;52.818;6.516;2023-03-01T01:07:14;-0.70;99.90
60723;DHT22;46574;52.818;6.516;2023-03-01T01:09:40;-0.80;99.90
60723;DHT22;46574;52.818;6.516;2023-03-01T01:12:06;-0.80;99.90
60723;DHT22;46574;52.818;6.516;2023-03-01T01:14:32;-0.80;99.90
60723;DHT22;46574;52.818;6.516;2023-03-01T01:16:58;-0.90;99.90
60723;DHT22;46574;52.818;6.516;2023-03-01T01:19:24;-0.90;99.90
60723;DHT22;46574;52.818;6.516;2023-03-01T01:21:50;-1.00;99.90
60723;DHT22;46574;52.818;6.516;2023-03-01T01:24:17;-0.90;99.90
60723;DHT22;46574;52.818;6.516;2023-03-01T01:26:42;-0.80;99.90
60723;DHT22;46574;52.818;6.516;2023-03-01T01:29:09;-0.90;99.90
60723;DHT22;46574;52.818;6.516;2023-03-01T01:31:36;-0.80;99.90
60723;DHT22;46574;52.818;6.516;2023-03-01T01:34:04;-0.80;99.90
60723;DHT22;46574;52.818;6.516;2023-03-01T01:36:31;-0.80;99.90
60723;DHT22;46574;52.818;6.516;2023-03-01T01:38:56;-0.80;99.90
60723;DHT22;46574;52.818;6.516;2023-03-01T01:41:24;-0.90;99.90
60723;DHT22;46574;52.818;6.516;2023-03-01T01:46:41;-1.00;99.90
60723;DHT22;46574;52.818;6.516;2023-03-01T01:49:30;-1.00;99.90
60723;DHT22;46574;52.818;6.516;2023-03-01T01:52:34;-1.00;99.90
60723;DHT22;46574;52.818;6.516;2023-03-01T01:55:11;-1.00;99.90
60723;DHT22;46574;52.818;6.516;2023-03-01T01:57:43;-1.00;99.90
60723;DHT22;46574;52.818;6.516;2023-03-01T02:00:14;-1.00;99.90
60723;DHT22;46574;52.818;6.516;2023-03-01T02:02:41;-1.00;99.90
60723;DHT22;46574;52.818;6.516;2023-03-01T02:05:17;-1.00;99.90
60723;DHT22;46574;52.818;6.516;2023-03-01T02:07:46;-1.10;99.90
60723;DHT22;46574;52.818;6.516;2023-03-01T02:10:13;-1.10;99.90
60723;DHT22;46574;52.818;6.516;2023-03-01T02:12:39;-1.10;99.90
60723;DHT22;46574;52.818;6.516;2023-03-01T02:15:05;-1.10;99.90
60723;DHT22;46574;52.818;6.516;2023-03-01T02:17:31;-1.10;99.90
60723;DHT22;46574;52.818;6.516;2023-03-01T02:20:18;-1.20;99.90
60723;DHT22;46574;52.818;6.516;2023-03-01T02:22:47;-1.30;99.90
60723;DHT22;46574;52.818;6.516;2023-03-01T02:30:34;-1.40;99.90
60723;DHT22;46574;52.818;6.516;2023-03-01T02:33:01;-1.40;99.90
60723;DHT22;46574;52.818;6.516;2023-03-01T02:35:35;-1.40;99.90
60723;DHT22;46574;52.818;6.516;2023-03-01T02:38:03;-1.50;99.90
60723;DHT22;46574;52.818;6.516;2023-03-01T02:40:33;-1.50;99.90
60723;DHT22;46574;52.818;6.516;2023-03-01T02:42:59;-1.50;99.90
60723;DHT22;46574;52.818;6.516;2023-03-01T02:45:26;-1.50;99.90
60723;DHT22;46574;52.818;6.516;2023-03-01T02:47:56;-1.50;99.90
60723;DHT22;46574;52.818;6.516;2023-03-01T02:53:45;-1.50;99.90
60723;DHT22;46574;52.818;6.516;2023-03-01T02:56:07;-1.50;99.90
60723;DHT22;46574;52.818;6.516;2023-03-01T02:58:42;-1.50;99.90
60723;DHT22;46574;52.818;6.516;2023-03-01T03:01:13;-1.50;99.90
60723;DHT22;46574;52.818;6.516;2023-03-01T03:03:41;-1.50;99.90
60723;DHT22;46574;52.818;6.516;2023-03-01T03:06:07;-1.50;99.90
60723;DHT22;46574;52.818;6.516;2023-03-01T03:08:33;-1.50;99.90
60723;DHT22;46574;52.818;6.516;2023-03-01T03:10:58;-1.50;99.90
60723;DHT22;46574;52.818;6.516;2023-03-01T03:13:24;-1.50;99.90
60723;DHT22;46574;52.818;6.516;2023-03-01T03:15:55;-1.60;99.90
60723;DHT22;46574;52.818;6.516;2023-03-01T03:18:22;-1.60;99.90
60723;DHT22;46574;52.818;6.516;2023-03-01T03:20:48;-1.60;99.90
60723;DHT22;46574;52.818;6.516;2023-03-01T03:23:19;-1.70;99.90
60723;DHT22;46574;52.818;6.516;2023-03-01T03:25:50;-1.80;99.90
60723;DHT22;46574;52.818;6.516;2023-03-01T03:28:16;-1.80;99.90
60723;DHT22;46574;52.818;6.516;2023-03-01T03:30:44;-1.90;99.90
60723;DHT22;46574;52.818;6.516;2023-03-01T03:33:11;-2.10;99.90
60723;DHT22;46574;52.818;6.516;2023-03-01T03:35:45;-2.10;99.90
60723;DHT22;46574;52.818;6.516;2023-03-01T03:38:13;-2.10;99.90
60723;DHT22;46574;52.818;6.516;2023-03-01T03:40:45;-2.10;99.90
60723;DHT22;46574;52.818;6.516;2023-03-01T03:43:13;-2.10;99.90
60723;DHT22;46574;52.818;6.516;2023-03-01T03:45:39;-2.10;99.90
60723;DHT22;46574;52.818;6.516;2023-03-01T03:48:07;-2.10;99.90
60723;DHT22;46574;52.818;6.516;2023-03-01T03:50:33;-2.10;99.90
60723;DHT22;46574;52.818;6.516;2023-03-01T03:53:04;-2.00;99.90
60723;DHT22;46574;52.818;6.516;2023-03-01T03:55:30;-2.10;99.90
60723;DHT22;46574;52.818;6.516;2023-03-01T03:58:00;-2.00;99.90
60723;DHT22;46574;52.818;6.516;2023-03-01T04:00:33;-2.00;99.90
60723;DHT22;46574;52.818;6.516;2023-03-01T04:02:59;-2.00;99.90
60723;DHT22;46574;52.818;6.516;2023-03-01T04:05:25;-2.00;99.90
60723;DHT22;46574;52.818;6.516;2023-03-01T04:07:50;-2.00;99.90
60723;DHT22;46574;52.818;6.516;2023-03-01T04:10:27;-2.10;99.90
60723;DHT22;46574;52.818;6.516;2023-03-01T04:12:54;-2.10;99.90
60723;DHT22;46574;52.818;6.516;2023-03-01T04:15:22;-2.10;99.90
60723;DHT22;46574;52.818;6.516;2023-03-01T04:17:51;-2.10;99.90
60723;DHT22;46574;52.818;6.516;2023-03-01T04:20:22;-2.10;99.90
60723;DHT22;46574;52.818;6.516;2023-03-01T04:23:03;-2.10;99.90
60723;DHT22;46574;52.818;6.516;2023-03-01T04:25:52;-2.10;99.90
60723;DHT22;46574;52.818;6.516;2023-03-01T04:28:22;-2.10;99.90
60723;DHT22;46574;52.818;6.516;2023-03-01T04:30:50;-2.10;99.90
60723;DHT22;46574;52.818;6.516;2023-03-01T04:33:16;-2.20;99.90
60723;DHT22;46574;52.818;6.516;2023-03-01T04:35:41;-2.20;99.90
60723;DHT22;46574;52.818;6.516;2023-03-01T04:38:07;-2.30;99.90
60723;DHT22;46574;52.818;6.516;2023-03-01T04:40:33;-2.30;99.90
60723;DHT22;46574;52.818;6.516;2023-03-01T04:42:59;-2.30;99.90
60723;DHT22;46574;52.818;6.516;2023-03-01T04:45:25;-2.30;99.90
60723;DHT22;46574;52.818;6.516;2023-03-01T04:47:51;-2.30;99.90
60723;DHT22;46574;52.818;6.516;2023-03-01T04:50:20;-2.30;99.90
60723;DHT22;46574;52.818;6.516;2023-03-01T04:52:46;-2.30;99.90
60723;DHT22;46574;52.818;6.516;2023-03-01T04:55:13;-2.30;99.90
60723;DHT22;46574;52.818;6.516;2023-03-01T04:57:39;-2.30;99.90
60723;DHT22;46574;52.818;6.516;2023-03-01T05:00:07;-2.30;99.90
60723;DHT22;46574;52.818;6.516;2023-03-01T05:02:46;-2.30;99.90
60723;DHT22;46574;52.818;6.516;2023-03-01T05:05:14;-2.30;99.90
60723;DHT22;46574;52.818;6.516;2023-03-01T05:07:40;-2.30;99.90
60723;DHT22;46574;52.818;6.516;2023-03-01T05:10:05;-2.40;99.90
60723;DHT22;46574;52.818;6.516;2023-03-01T05:12:31;-2.30;99.90
60723;DHT22;46574;52.818;6.516;2023-03-01T05:14:56;-2.40;99.90
60723;DHT22;46574;52.818;6.516;2023-03-01T05:17:23;-2.40;99.90
60723;DHT22;46574;52.818;6.516;2023-03-01T05:19:49;-2.40;99.90
60723;DHT22;46574;52.818;6.516;2023-03-01T05:22:15;-2.50;99.90
60723;DHT22;46574;52.818;6.516;2023-03-01T05:24:41;-2.50;99.90
60723;DHT22;46574;52.818;6.516;2023-03-01T05:27:07;-2.50;99.90
60723;DHT22;46574;52.818;6.516;2023-03-01T05:29:33;-2.50;99.90
60723;DHT22;46574;52.818;6.516;2023-03-01T05:32:01;-2.50;99.90
60723;DHT22;46574;52.818;6.516;2023-03-01T05:34:32;-2.50;99.90
60723;DHT22;46574;52.818;6.516;2023-03-01T05:36:59;-2.50;99.90
60723;DHT22;46574;52.818;6.516;2023-03-01T05:39:26;-2.40;99.90
60723;DHT22;46574;52.818;6.516;2023-03-01T05:41:57;-2.40;99.90
60723;DHT22;46574;52.818;6.516;2023-03-01T05:44:24;-2.40;99.90
60723;DHT22;46574;52.818;6.516;2023-03-01T05:46:51;-2.40;99.90
60723;DHT22;46574;52.818;6.516;2023-03-01T05:49:16;-2.40;99.90
60723;DHT22;46574;52.818;6.516;2023-03-01T05:51:46;-2.40;99.90
60723;DHT22;46574;52.818;6.516;2023-03-01T05:54:12;-2.40;99.90
60723;DHT22;46574;52.818;6.516;2023-03-01T05:56:38;-2.40;99.90
60723;DHT22;46574;52.818;6.516;2023-03-01T05:59:05;-2.40;99.90
60723;DHT22;46574;52.818;6.516;2023-03-01T06:01:34;-2.40;99.90
60723;DHT22;46574;52.818;6.516;2023-03-01T06:04:00;-2.50;99.90
60723;DHT22;46574;52.818;6.516;2023-03-01T06:06:26;-2.50;99.90
60723;DHT22;46574;52.818;6.516;2023-03-01T06:08:53;-2.50;99.90
60723;DHT22;46574;52.818;6.516;2023-03-01T06:11:19;-2.50;99.90
60723;DHT22;46574;52.818;6.516;2023-03-01T06:13:45;-2.40;99.90
60723;DHT22;46574;52.818;6.516;2023-03-01T06:16:12;-2.40;99.90
60723;DHT22;46574;52.818;6.516;2023-03-01T06:18:38;-2.40;99.90
60723;DHT22;46574;52.818;6.516;2023-03-01T06:21:05;-2.40;99.90
60723;DHT22;46574;52.818;6.516;2023-03-01T06:23:31;-2.40;99.90
60723;DHT22;46574;52.818;6.516;2023-03-01T06:25:56;-2.40;99.90
60723;DHT22;46574;52.818;6.516;2023-03-01T06:28:22;-2.40;99.90
60723;DHT22;46574;52.818;6.516;2023-03-01T06:30:49;-2.40;99.90
60723;DHT22;46574;52.818;6.516;2023-03-01T06:33:15;-2.40;99.90
60723;DHT22;46574;52.818;6.516;2023-03-01T06:35:41;-2.30;99.90
60723;DHT22;46574;52.818;6.516;2023-03-01T06:38:07;-2.40;99.90
60723;DHT22;46574;52.818;6.516;2023-03-01T06:40:33;-2.30;99.90
60723;DHT22;46574;52.818;6.516;2023-03-01T06:43:00;-2.30;99.90
60723;DHT22;46574;52.818;6.516;2023-03-01T06:45:26;-2.30;99.90
60723;DHT22;46574;52.818;6.516;2023-03-01T06:47:52;-2.30;99.90
60723;DHT22;46574;52.818;6.516;2023-03-01T06:50:18;-2.30;99.90
60723;DHT22;46574;52.818;6.516;2023-03-01T06:52:44;-2.20;99.90
60723;DHT22;46574;52.818;6.516;2023-03-01T06:55:11;-2.30;99.90
60723;DHT22;46574;52.818;6.516;2023-03-01T06:57:37;-2.30;99.90
60723;DHT22;46574;52.818;6.516;2023-03-01T07:00:04;-2.20;99.90
60723;DHT22;46574;52.818;6.516;2023-03-01T07:02:30;-2.20;99.90
60723;DHT22;46574;52.818;6.516;2023-03-01T07:04:56;-2.20;99.90
60723;DHT22;46574;52.818;6.516;2023-03-01T07:07:21;-2.10;99.90
60723;DHT22;46574;52.818;6.516;2023-03-01T07:09:48;-2.10;99.90
60723;DHT22;46574;52.818;6.516;2023-03-01T07:12:14;-2.10;99.90
60723;DHT22;46574;52.818;6.516;2023-03-01T07:14:40;-2.10;99.90
60723;DHT22;46574;52.818;6.516;2023-03-01T07:17:06;-2.00;99.90
60723;DHT22;46574;52.818;6.516;2023-03-01T07:19:32;-2.00;99.90
60723;DHT22;46574;52.818;6.516;2023-03-01T07:21:57;-1.90;99.90
60723;DHT22;46574;52.818;6.516;2023-03-01T07:24:23;-1.90;99.90
60723;DHT22;46574;52.818;6.516;2023-03-01T07:26:50;-1.80;99.90
60723;DHT22;46574;52.818;6.516;2023-03-01T07:29:18;-1.80;99.90
60723;DHT22;46574;52.818;6.516;2023-03-01T07:31:44;-1.80;99.90
60723;DHT22;46574;52.818;6.516;2023-03-01T07:34:09;-1.70;99.90
60723;DHT22;46574;52.818;6.516;2023-03-01T07:36:36;-1.70;99.90
60723;DHT22;46574;52.818;6.516;2023-03-01T07:39:02;-1.60;99.90
60723;DHT22;46574;52.818;6.516;2023-03-01T07:41:28;-1.60;99.90
60723;DHT22;46574;52.818;6.516;2023-03-01T07:43:54;-1.60;99.90
60723;DHT22;46574;52.818;6.516;2023-03-01T07:46:20;-1.50;99.90
60723;DHT22;46574;52.818;6.516;2023-03-01T07:48:46;-1.50;99.90
60723;DHT22;46574;52.818;6.516;2023-03-01T07:51:13;-1.40;99.90
60723;DHT22;46574;52.818;6.516;2023-03-01T07:53:38;-1.40;99.90
60723;DHT22;46574;52.818;6.516;2023-03-01T07:56:11;-1.30;99.90
60723;DHT22;46574;52.818;6.516;2023-03-01T07:58:40;-1.20;99.90
60723;DHT22;46574;52.818;6.516;2023-03-01T08:01:09;-1.10;99.90
60723;DHT22;46574;52.818;6.516;2023-03-01T08:03:36;-1.00;99.90
60723;DHT22;46574;52.818;6.516;2023-03-01T08:06:02;-0.90;99.90
60723;DHT22;46574;52.818;6.516;2023-03-01T08:08:29;-0.80;99.90
60723;DHT22;46574;52.818;6.516;2023-03-01T08:10:59;-0.70;99.90
60723;DHT22;46574;52.818;6.516;2023-03-01T08:13:25;-0.60;99.90
60723;DHT22;46574;52.818;6.516;2023-03-01T08:15:51;-0.50;99.90
60723;DHT22;46574;52.818;6.516;2023-03-01T08:18:18;-0.40;99.90
60723;DHT22;46574;52.818;6.516;2023-03-01T08:20:44;-0.30;99.90
60723;DHT22;46574;52.818;6.516;2023-03-01T08:23:10;-0.20;99.90
60723;DHT22;46574;52.818;6.516;2023-03-01T08:25:36;0.00;99.90
60723;DHT22;46574;52.818;6.516;2023-03-01T08:28:02;0.10;99.90
60723;DHT22;46574;52.818;6.516;2023-03-01T08:30:28;0.10;99.90
60723;DHT22;46574;52.818;6.516;2023-03-01T08:32:54;0.20;99.90
60723;DHT22;46574;52.818;6.516;2023-03-01T08:35:20;0.30;99.90
60723;DHT22;46574;52.818;6.516;2023-03-01T08:37:47;0.50;99.90
60723;DHT22;46574;52.818;6.516;2023-03-01T08:40:13;0.50;99.90
60723;DHT22;46574;52.818;6.516;2023-03-01T08:42:40;0.60;99.90
60723;DHT22;46574;52.818;6.516;2023-03-01T08:45:07;0.70;99.90
60723;DHT22;46574;52.818;6.516;2023-03-01T08:47:33;0.80;99.90
60723;DHT22;46574;52.818;6.516;2023-03-01T08:49:59;0.90;99.90
60723;DHT22;46574;52.818;6.516;2023-03-01T08:52:25;0.90;99.90
60723;DHT22;46574;52.818;6.516;2023-03-01T08:54:51;1.00;99.90
60723;DHT22;46574;52.818;6.516;2023-03-01T08:57:17;1.10;99.90
60723;DHT22;46574;52.818;6.516;2023-03-01T08:59:43;1.20;99.90
60723;DHT22;46574;52.818;6.516;2023-03-01T09:02:14;1.30;99.90
60723;DHT22;46574;52.818;6.516;2023-03-01T09:04:40;1.40;99.90
60723;DHT22;46574;52.818;6.516;2023-03-01T09:07:06;1.60;99.90
60723;DHT22;46574;52.818;6.516;2023-03-01T09:09:32;1.70;99.90
60723;DHT22;46574;52.818;6.516;2023-03-01T09:11:58;1.80;99.90
60723;DHT22;46574;52.818;6.516;2023-03-01T09:14:23;1.90;99.90
60723;DHT22;46574;52.818;6.516;2023-03-01T09:16:50;1.90;99.90
60723;DHT22;46574;52.818;6.516;2023-03-01T09:19:15;2.00;99.90
60723;DHT22;46574;52.818;6.516;2023-03-01T09:21:41;2.10;99.90
60723;DHT22;46574;52.818;6.516;2023-03-01T09:24:17;2.30;99.90
60723;DHT22;46574;52.818;6.516;2023-03-01T09:26:43;2.40;99.90
60723;DHT22;46574;52.818;6.516;2023-03-01T09:29:11;2.50;99.90
60723;DHT22;46574;52.818;6.516;2023-03-01T09:31:38;2.60;99.90
60723;DHT22;46574;52.818;6.516;2023-03-01T09:34:04;2.80;99.90
60723;DHT22;46574;52.818;6.516;2023-03-01T09:36:29;2.80;99.90
60723;DHT22;46574;52.818;6.516;2023-03-01T09:38:55;3.00;99.90
60723;DHT22;46574;52.818;6.516;2023-03-01T09:41:38;3.10;99.90
60723;DHT22;46574;52.818;6.516;2023-03-01T09:46:54;3.40;99.90
60723;DHT22;46574;52.818;6.516;2023-03-01T09:49:28;3.50;99.90
60723;DHT22;46574;52.818;6.516;2023-03-01T09:51:57;3.70;99.90
60723;DHT22;46574;52.818;6.516;2023-03-01T09:54:24;3.80;99.90
60723;DHT22;46574;52.818;6.516;2023-03-01T09:57:17;3.90;99.90
60723;DHT22;46574;52.818;6.516;2023-03-01T09:59:48;4.00;99.90
60723;DHT22;46574;52.818;6.516;2023-03-01T10:05:31;4.30;99.90
60723;DHT22;46574;52.818;6.516;2023-03-01T10:08:14;4.60;99.90
60723;DHT22;46574;52.818;6.516;2023-03-01T10:10:46;4.70;99.90
60723;DHT22;46574;52.818;6.516;2023-03-01T10:13:37;4.90;99.90
60723;DHT22;46574;52.818;6.516;2023-03-01T10:16:21;5.10;99.90
60723;DHT22;46574;52.818;6.516;2023-03-01T10:18:53;5.30;99.90
60723;DHT22;46574;52.818;6.516;2023-03-01T10:21:20;5.60;99.90
60723;DHT22;46574;52.818;6.516;2023-03-01T10:23:50;5.70;99.90
60723;DHT22;46574;52.818;6.516;2023-03-01T10:29:10;6.00;99.90
60723;DHT22;46574;52.818;6.516;2023-03-01T10:31:41;6.10;99.90
60723;DHT22;46574;52.818;6.516;2023-03-01T10:34:32;6.20;99.90
60723;DHT22;46574;52.818;6.516;2023-03-01T10:37:16;6.40;99.90
60723;DHT22;46574;52.818;6.516;2023-03-01T10:40:06;6.40;99.90
60723;DHT22;46574;52.818;6.516;2023-03-01T10:42:39;6.60;99.90
60723;DHT22;46574;52.818;6.516;2023-03-01T10:48:22;6.70;99.90
60723;DHT22;46574;52.818;6.516;2023-03-01T10:51:15;6.80;99.90
60723;DHT22;46574;52.818;6.516;2023-03-01T10:53:48;6.80;99.90
60723;DHT22;46574;52.818;6.516;2023-03-01T10:56:15;6.90;99.90
60723;DHT22;46574;52.818;6.516;2023-03-01T10:58:57;6.90;99.90
60723;DHT22;46574;52.818;6.516;2023-03-01T11:01:24;7.00;99.90
60723;DHT22;46574;52.818;6.516;2023-03-01T11:04:23;7.00;99.90
60723;DHT22;46574;52.818;6.516;2023-03-01T11:06:59;7.10;99.90
60723;DHT22;46574;52.818;6.516;2023-03-01T11:09:25;7.20;99.90
60723;DHT22;46574;52.818;6.516;2023-03-01T11:11:55;7.20;99.90
60723;DHT22;46574;52.818;6.516;2023-03-01T11:14:26;7.00;99.90
60723;DHT22;46574;52.818;6.516;2023-03-01T11:17:01;7.10;99.90
60723;DHT22;46574;52.818;6.516;2023-03-01T11:19:27;7.20;99.90
60723;DHT22;46574;52.818;6.516;2023-03-01T11:25:07;7.40;99.90
60723;DHT22;46574;52.818;6.516;2023-03-01T11:27:30;7.50;99.90
60723;DHT22;46574;52.818;6.516;2023-03-01T11:30:22;7.50;99.90
60723;DHT22;46574;52.818;6.516;2023-03-01T11:33:20;7.60;99.90
60723;DHT22;46574;52.818;6.516;2023-03-01T11:35:58;7.70;99.90
60723;DHT22;46574;52.818;6.516;2023-03-01T11:38:27;7.70;99.90
60723;DHT22;46574;52.818;6.516;2023-03-01T11:51:56;8.10;99.90
60723;DHT22;46574;52.818;6.516;2023-03-01T12:01:07;8.20;99.90
60723;DHT22;46574;52.818;6.516;2023-03-01T12:03:23;8.20;99.90
60723;DHT22;46574;52.818;6.516;2023-03-01T12:24:59;8.50;99.90
60723;DHT22;46574;52.818;6.516;2023-03-01T12:27:54;8.60;99.90
60723;DHT22;46574;52.818;6.516;2023-03-01T12:30:27;8.60;99.90
60723;DHT22;46574;52.818;6.516;2023-03-01T12:33:02;8.60;99.90
60723;DHT22;46574;52.818;6.516;2023-03-01T12:38:33;8.60;99.90
60723;DHT22;46574;52.818;6.516;2023-03-01T12:41:16;8.70;99.90
60723;DHT22;46574;52.818;6.516;2023-03-01T12:44:13;8.70;99.90
60723;DHT22;46574;52.818;6.516;2023-03-01T12:47:07;8.70;99.90
60723;DHT22;46574;52.818;6.516;2023-03-01T12:49:40;8.70;99.90
60723;DHT22;46574;52.818;6.516;2023-03-01T12:52:16;8.70;99.90
60723;DHT22;46574;52.818;6.516;2023-03-01T12:54:45;8.80;99.90
60723;DHT22;46574;52.818;6.516;2023-03-01T12:57:31;8.80;99.90
60723;DHT22;46574;52.818;6.516;2023-03-01T13:00:27;8.80;99.90
60723;DHT22;46574;52.818;6.516;2023-03-01T13:03:27;8.60;99.90
60723;DHT22;46574;52.818;6.516;2023-03-01T13:08:41;8.70;99.90
60723;DHT22;46574;52.818;6.516;2023-03-01T13:11:18;8.90;99.90
60723;DHT22;46574;52.818;6.516;2023-03-01T13:13:45;9.10;99.90
60723;DHT22;46574;52.818;6.516;2023-03-01T13:19:25;9.30;99.90
60723;DHT22;46574;52.818;6.516;2023-03-01T13:21:53;9.40;99.90
60723;DHT22;46574;52.818;6.516;2023-03-01T13:24:41;9.50;99.90
60723;DHT22;46574;52.818;6.516;2023-03-01T13:29:45;9.40;99.90
60723;DHT22;46574;52.818;6.516;2023-03-01T13:32:25;9.60;99.90
60723;DHT22;46574;52.818;6.516;2023-03-01T13:37:25;10.10;99.90
60723;DHT22;46574;52.818;6.516;2023-03-01T13:39:52;9.90;99.90
60723;DHT22;46574;52.818;6.516;2023-03-01T13:42:40;9.80;99.90
60723;DHT22;46574;52.818;6.516;2023-03-01T13:45:22;9.80;99.90
60723;DHT22;46574;52.818;6.516;2023-03-01T13:47:53;9.70;99.90
60723;DHT22;46574;52.818;6.516;2023-03-01T13:50:35;9.80;99.90
60723;DHT22;46574;52.818;6.516;2023-03-01T13:53:05;10.10;99.90
60723;DHT22;46574;52.818;6.516;2023-03-01T13:55:42;10.10;99.90
60723;DHT22;46574;52.818;6.516;2023-03-01T13:58:24;10.50;99.90
60723;DHT22;46574;52.818;6.516;2023-03-01T14:03:29;10.90;99.90
60723;DHT22;46574;52.818;6.516;2023-03-01T14:06:00;11.20;99.90
60723;DHT22;46574;52.818;6.516;2023-03-01T14:08:29;11.00;99.90
60723;DHT22;46574;52.818;6.516;2023-03-01T14:20:00;10.50;99.90
60723;DHT22;46574;52.818;6.516;2023-03-01T14:22:33;11.10;99.90
60723;DHT22;46574;52.818;6.516;2023-03-01T14:25:18;11.00;99.90
60723;DHT22;46574;52.818;6.516;2023-03-01T14:27:44;11.20;99.90
60723;DHT22;46574;52.818;6.516;2023-03-01T14:30:37;12.10;99.90
60723;DHT22;46574;52.818;6.516;2023-03-01T14:33:16;12.90;99.90
60723;DHT22;46574;52.818;6.516;2023-03-01T14:35:52;13.10;98.30
60723;DHT22;46574;52.818;6.516;2023-03-01T14:38:39;12.80;91.00
60723;DHT22;46574;52.818;6.516;2023-03-01T14:41:20;12.50;93.90
60723;DHT22;46574;52.818;6.516;2023-03-01T14:44:06;12.50;97.90
60723;DHT22;46574;52.818;6.516;2023-03-01T14:46:37;12.70;96.50
60723;DHT22;46574;52.818;6.516;2023-03-01T14:49:12;13.00;94.80
60723;DHT22;46574;52.818;6.516;2023-03-01T14:51:42;12.80;90.20
60723;DHT22;46574;52.818;6.516;2023-03-01T14:56:46;11.70;92.70
60723;DHT22;46574;52.818;6.516;2023-03-01T14:59:12;11.20;96.80
60723;DHT22;46574;52.818;6.516;2023-03-01T15:01:40;10.70;97.70
60723;DHT22;46574;52.818;6.516;2023-03-01T15:04:10;10.50;99.30
60723;DHT22;46574;52.818;6.516;2023-03-01T15:06:37;10.30;99.80
60723;DHT22;46574;52.818;6.516;2023-03-01T15:09:03;10.10;99.90
60723;DHT22;46574;52.818;6.516;2023-03-01T15:11:32;9.90;99.90
60723;DHT22;46574;52.818;6.516;2023-03-01T15:13:59;9.90;99.90
60723;DHT22;46574;52.818;6.516;2023-03-01T15:16:31;9.80;99.90
60723;DHT22;46574;52.818;6.516;2023-03-01T15:19:03;9.70;99.90
60723;DHT22;46574;52.818;6.516;2023-03-01T15:21:34;9.70;99.90
60723;DHT22;46574;52.818;6.516;2023-03-01T15:26:51;9.60;99.90
60723;DHT22;46574;52.818;6.516;2023-03-01T15:29:24;9.50;99.90
60723;DHT22;46574;52.818;6.516;2023-03-01T15:32:25;9.50;99.90
60723;DHT22;46574;52.818;6.516;2023-03-01T15:34:51;9.40;99.90
60723;DHT22;46574;52.818;6.516;2023-03-01T15:37:44;9.30;99.90
60723;DHT22;46574;52.818;6.516;2023-03-01T15:40:48;9.10;99.90
60723;DHT22;46574;52.818;6.516;2023-03-01T15:43:40;9.00;99.90
60723;DHT22;46574;52.818;6.516;2023-03-01T15:48:47;8.60;99.90
60723;DHT22;46574;52.818;6.516;2023-03-01T15:51:15;8.50;99.90
60723;DHT22;46574;52.818;6.516;2023-03-01T15:53:47;8.40;99.90
60723;DHT22;46574;52.818;6.516;2023-03-01T15:56:13;8.30;99.90
60723;DHT22;46574;52.818;6.516;2023-03-01T15:58:39;8.30;99.90
60723;DHT22;46574;52.818;6.516;2023-03-01T16:01:12;8.20;99.90
60723;DHT22;46574;52.818;6.516;2023-03-01T16:03:38;8.20;99.90
60723;DHT22;46574;52.818;6.516;2023-03-01T16:06:04;8.20;99.90
60723;DHT22;46574;52.818;6.516;2023-03-01T16:08:29;8.20;99.90
60723;DHT22;46574;52.818;6.516;2023-03-01T16:10:55;8.20;99.90
60723;DHT22;46574;52.818;6.516;2023-03-01T16:13:21;8.20;99.90
60723;DHT22;46574;52.818;6.516;2023-03-01T16:15:47;8.30;99.90
60723;DHT22;46574;52.818;6.516;2023-03-01T16:18:12;8.40;99.90
60723;DHT22;46574;52.818;6.516;2023-03-01T16:20:38;8.60;99.90
60723;DHT22;46574;52.818;6.516;2023-03-01T16:23:06;8.70;99.90
60723;DHT22;46574;52.818;6.516;2023-03-01T16:25:33;8.80;99.90
60723;DHT22;46574;52.818;6.516;2023-03-01T16:27:59;8.60;99.90
60723;DHT22;46574;52.818;6.516;2023-03-01T16:30:29;8.50;99.90
60723;DHT22;46574;52.818;6.516;2023-03-01T16:32:54;8.30;99.90
60723;DHT22;46574;52.818;6.516;2023-03-01T16:35:21;8.20;99.90
60723;DHT22;46574;52.818;6.516;2023-03-01T16:37:48;8.10;99.90
60723;DHT22;46574;52.818;6.516;2023-03-01T16:40:20;7.90;99.90
60723;DHT22;46574;52.818;6.516;2023-03-01T16:42:50;7.80;99.90
60723;DHT22;46574;52.818;6.516;2023-03-01T16:45:17;7.70;99.90
60723;DHT22;46574;52.818;6.516;2023-03-01T16:47:42;7.50;99.90
60723;DHT22;46574;52.818;6.516;2023-03-01T16:50:09;7.30;99.90
60723;DHT22;46574;52.818;6.516;2023-03-01T16:52:35;7.10;99.90
60723;DHT22;46574;52.818;6.516;2023-03-01T16:55:03;6.90;99.90
60723;DHT22;46574;52.818;6.516;2023-03-01T16:57:29;6.60;99.90
60723;DHT22;46574;52.818;6.516;2023-03-01T16:59:55;6.40;99.90
60723;DHT22;46574;52.818;6.516;2023-03-01T17:02:21;6.20;99.90
60723;DHT22;46574;52.818;6.516;2023-03-01T17:04:54;6.10;99.90
60723;DHT22;46574;52.818;6.516;2023-03-01T17:07:20;5.90;99.90
60723;DHT22;46574;52.818;6.516;2023-03-01T17:09:46;5.80;99.90
60723;DHT22;46574;52.818;6.516;2023-03-01T17:12:13;5.70;99.90
60723;DHT22;46574;52.818;6.516;2023-03-01T17:14:39;5.60;99.90
60723;DHT22;46574;52.818;6.516;2023-03-01T17:17:10;5.50;99.90
60723;DHT22;46574;52.818;6.516;2023-03-01T17:19:36;5.40;99.90
60723;DHT22;46574;52.818;6.516;2023-03-01T17:22:06;5.30;99.90
60723;DHT22;46574;52.818;6.516;2023-03-01T17:24:37;5.20;99.90
60723;DHT22;46574;52.818;6.516;2023-03-01T17:27:04;5.20;99.90
60723;DHT22;46574;52.818;6.516;2023-03-01T17:29:30;5.10;99.90
60723;DHT22;46574;52.818;6.516;2023-03-01T17:31:57;5.00;99.90
60723;DHT22;46574;52.818;6.516;2023-03-01T17:34:23;4.90;99.90